West Fulton, NY (12194)

3:53 PM EST on February 10, 2016 (GMT -0500)
valley | | Change Station
CLOSE
Current Station
Personal Weather Station
Location: Middleburgh, NY
Elevation: 764 ft
Nearby Weather Stations

Elev 764 ft 42.58 °N, 74.39 °W | Updated 12 seconds ago

Snow
Snow
32.7 °F
Feels Like 29 °F
N
3.7
Wind Variable Wind from NNW

Today
High -- | Low -- °F
--% Chance of Precip.
Yesterday
High -- | Low -- °F
Precip. -- in
Pressure 29.55 in
Visibility 8.0 miles
Clouds Scattered Clouds 2500 ft
Mostly Cloudy 3500 ft
Overcast 4000 ft
Windchill 29 °F
Dew Point 20 °F
Humidity 59%
Rainfall 0.02 in
Snow Depth Not available.
7:01 AM 5:22 PM
Waxing Crescent, 7% visible
METAR KSCH 101855Z 27012G20KT 8SM SCT025 BKN035 OVC040 01/M03 A2955 RMK OCNL -SN
Pressure 29.55 in
Visibility 8.0 miles
Clouds Scattered Clouds 2500 ft
Mostly Cloudy 3500 ft
Overcast 4000 ft
Windchill 29 °F
Dew Point 20 °F
Humidity 59%
Rainfall 0.02 in
Snow Depth Not available.
7:01 AM 5:22 PM
Waxing Crescent, 7% visible
METAR KSCH 101855Z 27012G20KT 8SM SCT025 BKN035 OVC040 01/M03 A2955 RMK OCNL -SN

10-Day Weather Forecast

Almanac

Astronomy

Feb. 10, 2016 Rise Set
Actual Time
Civil Twilight
Nautical Twilight
Astronomical Twilight
Moon
Length of Visible Light
Length of Day
Tomorrow will be .
, % of the Moon is Illuminated

Today's Extremes

State Highs State Lows

Community

WunderPhotos

Upload Photos

1,891,945 photos uploaded!

WunderBlog® & News

Nearby

Air Quality

  Air Quality AQ Index Pollutant
Not available.

Snow Depth

Station Depth Elevation

Earthquake Activity

City Distance Mag. Time & Date
Minimum magnitude displayed is 2.5.

Coastal Water Temperatures

Place Temperature

Stations

Nearby Weather Stations

Station Location Temp. Windchill Dew Point Humidity Wind Precip. Elev Updated Type
                   

Watches & Warnings

There are currently no watches in effect.